Glen Robertson, Canada
Current Conditions -  °F | °C
As of 4:00 AM on Wednesday 22 Oct 2014 (Local Time) from CYMX Reporting Station
Overcast Overcast  
Wind Chill: 38°   Ceiling: 6500
Heat Index: 43°   Visibility: 25mi
Dew Point: 32°   Wind: 8mph
Humidity: 66%   Direction: 50°NE
Pressure: 30.2"   Gusts: 18mph
Location:  45.35°N, 74.5°W
Report Text: CYMX 220800Z 05007G16KT 360V090 25SM SCT035 OVC065 06/M00 A3020 RMK SC3SC5 SLP231
Loading
Personal Weather Stations






























Interactive Weather Map
Tropical Storm Tracking
New forecast layout! Learn more

10-Day Weather Forecast

Advertisements
Track Severe Weather on mobile